createdAt,value
2023-01-22T00:01:32.496Z,24.33
2023-01-22T00:03:46.504Z,23.85
2023-01-22T00:05:58.770Z,22.92
2023-01-22T00:10:18.014Z,25.92
2023-01-22T00:12:20.064Z,22.20
2023-01-22T00:14:22.977Z,22.45
2023-01-22T00:16:24.999Z,22.23
2023-01-22T00:18:27.477Z,23.58
2023-01-22T00:20:40.814Z,20.13
2023-01-22T00:22:43.512Z,23.23
2023-01-22T00:25:15.316Z,21.58
2023-01-22T00:27:31.369Z,21.42
2023-01-22T00:29:33.282Z,19.23
2023-01-22T00:31:39.420Z,21.40
2023-01-22T00:33:44.797Z,23.63
2023-01-22T00:35:50.713Z,22.90
2023-01-22T00:37:59.475Z,21.60
2023-01-22T00:40:01.980Z,20.95
2023-01-22T00:42:06.936Z,20.85
2023-01-22T00:44:08.918Z,21.45
2023-01-22T00:46:14.061Z,20.23
2023-01-22T00:48:15.989Z,19.85
2023-01-22T00:50:28.121Z,26.33
2023-01-22T00:52:44.216Z,21.52
2023-01-22T00:55:05.967Z,21.02
2023-01-22T00:57:21.985Z,18.77
2023-01-22T00:59:30.153Z,20.35
2023-01-22T01:01:38.956Z,20.65
2023-01-22T01:03:42.531Z,20.27
2023-01-22T01:05:44.418Z,21.33
2023-01-22T01:07:47.363Z,22.17
2023-01-22T01:09:50.236Z,19.35
2023-01-22T01:11:56.522Z,18.58
2023-01-22T01:14:02.168Z,18.17
2023-01-22T01:16:08.392Z,20.02
2023-01-22T01:18:34.810Z,21.25
2023-01-22T01:20:44.742Z,19.35
2023-01-22T01:22:51.922Z,19.25
2023-01-22T01:24:55.810Z,17.90
2023-01-22T01:26:57.745Z,17.38
2023-01-22T01:29:05.607Z,21.38
2023-01-22T01:31:16.567Z,19.88
2023-01-22T01:33:20.598Z,20.58
2023-01-22T01:35:24.551Z,15.35
2023-01-22T01:37:26.466Z,18.23
2023-01-22T01:39:34.506Z,17.88
2023-01-22T01:41:36.380Z,18.35
2023-01-22T01:44:12.930Z,17.83
2023-01-22T01:46:22.300Z,17.35
2023-01-22T01:48:34.558Z,17.48
2023-01-22T01:50:52.173Z,18.63
2023-01-22T01:53:13.655Z,14.00
2023-01-22T01:55:30.373Z,20.95
2023-01-22T01:57:35.285Z,17.90
2023-01-22T01:59:39.678Z,16.90
2023-01-22T02:01:45.185Z,15.70
2023-01-22T02:03:49.482Z,17.30
2023-01-22T02:05:53.484Z,15.55
2023-01-22T02:08:03.682Z,16.48
2023-01-22T02:10:11.435Z,17.27
2023-01-22T02:12:13.379Z,14.57
2023-01-22T02:14:31.210Z,14.57
2023-01-22T02:16:59.877Z,12.57
2023-01-22T02:19:08.914Z,15.20
2023-01-22T02:21:52.437Z,14.80
2023-01-22T02:24:00.422Z,14.15
2023-01-22T02:26:05.241Z,12.85
2023-01-22T02:28:09.200Z,14.95
2023-01-22T02:30:18.484Z,13.13
2023-01-22T02:32:29.163Z,11.68
2023-01-22T02:34:46.306Z,13.40
2023-01-22T02:36:49.201Z,14.30
2023-01-22T02:38:52.144Z,13.27
2023-01-22T02:40:54.767Z,13.63
2023-01-22T02:42:58.740Z,13.13
2023-01-22T02:45:00.769Z,11.65
2023-01-22T02:47:02.832Z,12.20
2023-01-22T02:49:06.819Z,11.82
2023-01-22T02:51:08.749Z,11.48
2023-01-22T02:53:14.765Z,10.90
2023-01-22T02:55:17.788Z,11.60
2023-01-22T02:57:20.265Z,13.68
2023-01-22T02:59:31.421Z,11.25
2023-01-22T03:01:33.344Z,13.25
2023-01-22T03:03:38.441Z,13.38
2023-01-22T03:05:40.289Z,12.40
2023-01-22T03:07:42.515Z,13.07
2023-01-22T03:10:01.764Z,11.82
2023-01-22T03:12:04.009Z,11.30
2023-01-22T03:14:27.864Z,12.15
2023-01-22T03:16:48.342Z,11.63
2023-01-22T03:19:15.460Z,11.93
2023-01-22T03:21:24.638Z,11.25
2023-01-22T03:23:28.876Z,11.10
2023-01-22T03:25:41.041Z,11.60
2023-01-22T03:28:09.416Z,12.30
2023-01-22T03:30:30.379Z,12.18
2023-01-22T03:32:46.259Z,11.38
2023-01-22T03:35:16.165Z,10.95
2023-01-22T03:37:19.077Z,12.27
2023-01-22T03:39:23.585Z,12.13
2023-01-22T03:41:25.534Z,9.63
2023-01-22T03:43:28.120Z,11.18
2023-01-22T03:45:33.671Z,11.15
2023-01-22T03:47:45.655Z,12.75
2023-01-22T03:49:53.490Z,11.45
2023-01-22T03:52:03.188Z,11.77
2023-01-22T03:54:05.602Z,11.75
2023-01-22T03:56:26.158Z,11.25
2023-01-22T03:58:29.642Z,11.23
2023-01-22T04:00:36.726Z,10.85
2023-01-22T04:03:03.570Z,10.35
2023-01-22T04:05:16.551Z,11.77
2023-01-22T04:07:34.630Z,11.52
2023-01-22T04:09:49.629Z,10.75
2023-01-22T04:11:51.588Z,11.35
2023-01-22T04:14:16.297Z,11.27
2023-01-22T04:16:20.185Z,10.80
2023-01-22T04:18:31.104Z,11.40
2023-01-22T04:20:34.019Z,10.50
2023-01-22T04:22:38.955Z,11.68
2023-01-22T04:24:45.002Z,11.65
2023-01-22T04:26:54.019Z,11.73
2023-01-22T04:28:57.936Z,10.98
2023-01-22T04:31:14.166Z,10.70
2023-01-22T04:33:16.141Z,9.95
2023-01-22T04:35:28.195Z,10.55
2023-01-22T04:37:31.165Z,10.00
2023-01-22T04:39:34.103Z,11.27
2023-01-22T04:41:36.087Z,10.65
2023-01-22T04:43:38.090Z,11.45
2023-01-22T04:45:41.010Z,11.13
2023-01-22T04:47:44.695Z,10.18
2023-01-22T04:49:46.653Z,11.15
2023-01-22T04:51:54.261Z,11.15
2023-01-22T04:54:04.084Z,10.48
2023-01-22T04:56:06.306Z,11.05
2023-01-22T04:58:08.432Z,9.65
2023-01-22T05:00:17.473Z,9.60
2023-01-22T05:02:45.209Z,10.90
2023-01-22T05:04:48.158Z,9.57
2023-01-22T05:06:51.399Z,10.35
2023-01-22T05:09:02.254Z,11.23
2023-01-22T05:11:05.263Z,10.10
2023-01-22T05:13:09.329Z,9.55
2023-01-22T05:15:23.075Z,10.77
2023-01-22T05:17:27.925Z,10.30
2023-01-22T05:19:31.861Z,11.25
2023-01-22T05:21:44.824Z,11.30
2023-01-22T05:23:48.836Z,11.48
2023-01-22T05:25:51.786Z,10.55
2023-01-22T05:28:02.895Z,10.93
2023-01-22T05:30:17.515Z,10.07
2023-01-22T05:32:21.552Z,10.18
2023-01-22T05:34:43.789Z,10.32
2023-01-22T05:36:46.837Z,9.60
2023-01-22T05:38:51.872Z,9.75
2023-01-22T05:41:01.111Z,10.27
2023-01-22T05:43:05.089Z,10.73
2023-01-22T05:45:07.577Z,11.15
2023-01-22T05:47:13.792Z,10.40
2023-01-22T05:49:31.536Z,10.65
2023-01-22T05:51:44.392Z,9.77
2023-01-22T05:53:47.269Z,9.60
2023-01-22T05:55:50.161Z,10.45
2023-01-22T05:58:17.205Z,9.95
2023-01-22T06:00:20.572Z,9.98
2023-01-22T06:02:47.356Z,10.15
2023-01-22T06:04:59.638Z,9.05
2023-01-22T06:07:12.317Z,9.25
2023-01-22T06:09:14.387Z,10.07
2023-01-22T06:11:17.438Z,10.10
2023-01-22T06:13:24.388Z,10.18
2023-01-22T06:15:35.239Z,10.65
2023-01-22T06:17:39.240Z,10.05
2023-01-22T06:19:45.228Z,11.73
2023-01-22T06:21:49.153Z,10.45
2023-01-22T06:23:54.232Z,11.45
2023-01-22T06:26:05.775Z,10.48
2023-01-22T06:28:16.524Z,9.75
2023-01-22T06:30:42.405Z,10.63
2023-01-22T06:32:45.279Z,10.45
2023-01-22T06:34:52.280Z,10.30
2023-01-22T06:36:55.185Z,10.15
2023-01-22T06:38:58.092Z,11.23
2023-01-22T06:41:03.148Z,10.70
2023-01-22T06:43:06.142Z,10.38
2023-01-22T06:45:11.447Z,11.10
2023-01-22T06:47:14.343Z,11.13
2023-01-22T06:49:23.425Z,10.55
2023-01-22T06:51:25.949Z,11.30
2023-01-22T06:53:32.845Z,10.27
2023-01-22T06:55:35.296Z,10.45
2023-01-22T06:57:37.220Z,10.80
2023-01-22T06:59:41.196Z,11.13
2023-01-22T07:01:45.251Z,11.18
2023-01-22T07:03:53.845Z,13.32
2023-01-22T07:06:04.478Z,10.60
2023-01-22T07:08:07.467Z,11.52
2023-01-22T07:10:16.211Z,10.90
2023-01-22T07:12:43.150Z,11.52
2023-01-22T07:14:45.091Z,11.90
2023-01-22T07:16:50.248Z,10.57
2023-01-22T07:19:07.303Z,9.95
2023-01-22T07:21:13.499Z,10.93
2023-01-22T07:23:16.411Z,9.98
2023-01-22T07:25:20.515Z,9.52
2023-01-22T07:27:22.417Z,10.50
2023-01-22T07:29:33.439Z,10.27
2023-01-22T07:31:38.503Z,10.15
2023-01-22T07:33:40.552Z,9.73
2023-01-22T07:35:43.777Z,10.35
2023-01-22T07:37:53.777Z,9.50
2023-01-22T07:39:58.798Z,9.75
2023-01-22T07:42:13.897Z,10.13
2023-01-22T07:44:23.043Z,9.60
2023-01-22T07:46:31.022Z,9.82
2023-01-22T07:48:33.767Z,10.43
2023-01-22T07:50:59.201Z,9.90
2023-01-22T07:53:02.162Z,9.35
2023-01-22T07:55:16.533Z,9.38
2023-01-22T07:57:35.584Z,9.80
2023-01-22T07:59:39.511Z,10.23
2023-01-22T08:02:06.361Z,9.20
2023-01-22T08:04:08.430Z,8.98
2023-01-22T08:06:20.917Z,9.65
2023-01-22T08:08:29.813Z,9.65
2023-01-22T08:10:38.738Z,9.10
2023-01-22T08:12:47.794Z,9.50
2023-01-22T08:15:02.931Z,9.02
2023-01-22T08:17:12.914Z,9.82
2023-01-22T08:19:18.087Z,10.05
2023-01-22T08:21:33.010Z,9.50
2023-01-22T08:23:34.979Z,9.70
2023-01-22T08:25:42.595Z,8.98
2023-01-22T08:27:47.570Z,10.18
2023-01-22T08:29:50.669Z,9.48
2023-01-22T08:31:53.469Z,12.70
2023-01-22T08:33:59.363Z,11.65
2023-01-22T08:36:10.520Z,9.95
2023-01-22T08:38:12.576Z,9.80
2023-01-22T08:40:15.940Z,10.18
2023-01-22T08:42:26.268Z,11.45
2023-01-22T08:44:34.136Z,11.63
2023-01-22T08:47:03.897Z,12.43
2023-01-22T08:49:36.447Z,11.30
2023-01-22T08:51:41.391Z,10.95
2023-01-22T08:53:43.391Z,11.45
2023-01-22T08:55:59.497Z,10.55
2023-01-22T08:58:01.474Z,10.43
2023-01-22T09:00:05.719Z,11.18
2023-01-22T09:02:13.771Z,10.63
2023-01-22T09:04:15.710Z,10.90
2023-01-22T09:06:27.452Z,12.02
2023-01-22T09:10:36.843Z,10.55
2023-01-22T09:12:40.300Z,10.63
2023-01-22T09:14:43.289Z,10.60
2023-01-22T09:17:04.603Z,11.10
2023-01-22T09:19:15.661Z,11.70
2023-01-22T09:21:24.709Z,11.27
2023-01-22T09:23:41.961Z,12.05
2023-01-22T09:25:46.918Z,11.25
2023-01-22T09:27:49.899Z,11.40
2023-01-22T09:29:53.789Z,11.35
2023-01-22T09:31:56.655Z,13.48
2023-01-22T09:34:14.825Z,11.35
2023-01-22T09:36:18.561Z,11.40
2023-01-22T09:38:23.766Z,11.45
2023-01-22T09:40:48.747Z,10.27
2023-01-22T09:43:29.594Z,11.00
2023-01-22T09:45:38.309Z,11.00
2023-01-22T09:47:52.861Z,10.13
2023-01-22T09:50:18.394Z,10.75
2023-01-22T09:52:34.670Z,11.10
2023-01-22T09:54:44.080Z,11.30
2023-01-22T09:56:52.203Z,11.23
2023-01-22T09:58:56.288Z,11.77
2023-01-22T10:01:01.916Z,11.00
2023-01-22T10:03:10.734Z,12.13
2023-01-22T10:05:36.869Z,11.52
2023-01-22T10:07:43.607Z,11.40
2023-01-22T10:09:52.786Z,11.23
2023-01-22T10:12:09.812Z,13.23
2023-01-22T10:14:22.858Z,10.43
2023-01-22T10:16:27.000Z,12.15
2023-01-22T10:18:49.456Z,12.73
2023-01-22T10:21:29.363Z,11.48
2023-01-22T10:23:33.687Z,11.55
2023-01-22T10:25:35.580Z,12.98
2023-01-22T10:27:41.620Z,16.40
2023-01-22T10:30:16.465Z,11.57
2023-01-22T10:32:29.034Z,12.35
2023-01-22T10:34:36.944Z,11.70
2023-01-22T10:36:43.585Z,11.45
2023-01-22T10:38:49.711Z,13.45
2023-01-22T10:41:04.082Z,13.20
2023-01-22T10:43:22.080Z,11.93
2023-01-22T10:45:24.110Z,13.23
2023-01-22T10:47:27.822Z,11.10
2023-01-22T10:49:30.308Z,12.23
2023-01-22T10:51:41.236Z,12.77
2023-01-22T10:53:53.182Z,11.65
2023-01-22T10:55:57.978Z,12.13
2023-01-22T10:58:08.243Z,13.45
2023-01-22T11:00:50.934Z,11.10
2023-01-22T11:02:54.947Z,11.57
2023-01-22T11:05:14.628Z,12.05
2023-01-22T11:07:27.898Z,11.10
2023-01-22T11:09:40.984Z,12.57
2023-01-22T11:11:53.174Z,11.68
2023-01-22T11:14:02.987Z,14.32
2023-01-22T11:16:17.893Z,11.77
2023-01-22T11:19:05.075Z,12.25
2023-01-22T11:21:19.954Z,12.27
2023-01-22T11:23:36.000Z,14.85
2023-01-22T11:26:02.708Z,13.48
2023-01-22T11:28:21.823Z,13.55
2023-01-22T11:30:38.536Z,13.50
2023-01-22T11:33:01.295Z,12.48
2023-01-22T11:35:17.043Z,14.70
2023-01-22T11:37:42.279Z,16.95
2023-01-22T11:40:33.690Z,12.82
2023-01-22T11:43:04.831Z,13.82
2023-01-22T11:45:15.126Z,12.80
2023-01-22T11:47:19.100Z,13.90
2023-01-22T11:49:23.863Z,13.52
2023-01-22T11:51:34.198Z,14.18
2023-01-22T11:53:44.931Z,14.50
2023-01-22T11:56:32.555Z,14.40
2023-01-22T11:59:15.434Z,17.92
2023-01-22T12:01:24.321Z,20.85
2023-01-22T12:03:36.081Z,18.30
2023-01-22T12:06:16.903Z,16.27
2023-01-22T12:08:39.292Z,17.40
2023-01-22T12:10:57.642Z,17.75
2023-01-22T12:13:25.445Z,18.30
2023-01-22T12:15:36.380Z,17.70
2023-01-22T12:17:58.215Z,16.20
2023-01-22T12:20:08.590Z,19.05
2023-01-22T12:22:46.018Z,17.15
2023-01-22T12:24:55.164Z,19.80
2023-01-22T12:27:06.279Z,16.95
2023-01-22T12:29:13.605Z,15.70
2023-01-22T12:32:00.013Z,19.08
2023-01-22T12:34:10.124Z,17.67
2023-01-22T12:36:23.050Z,18.00
2023-01-22T12:38:42.222Z,20.60
2023-01-22T12:41:21.583Z,20.50
2023-01-22T12:43:41.204Z,18.83
2023-01-22T12:46:30.518Z,18.77
2023-01-22T12:48:41.377Z,17.15
2023-01-22T12:51:05.034Z,18.77
2023-01-22T12:53:22.350Z,17.33
2023-01-22T12:55:24.484Z,17.33
2023-01-22T12:57:37.241Z,15.88
2023-01-22T12:59:40.653Z,17.42
2023-01-22T13:02:00.894Z,15.65
2023-01-22T13:04:08.137Z,27.88
2023-01-22T13:06:38.860Z,14.10
2023-01-22T13:08:46.375Z,17.42
2023-01-22T13:10:56.503Z,16.52
2023-01-22T13:13:45.211Z,16.35
2023-01-22T13:15:55.556Z,17.98
2023-01-22T13:18:16.803Z,22.90
2023-01-22T13:20:20.721Z,16.80
2023-01-22T13:22:28.367Z,20.15
2023-01-22T13:24:30.781Z,17.05
2023-01-22T13:26:37.902Z,17.42
2023-01-22T13:28:42.280Z,16.70
2023-01-22T13:31:03.654Z,15.88
2023-01-22T13:33:13.863Z,18.13
2023-01-22T13:35:20.433Z,18.92
2023-01-22T13:37:24.576Z,15.02
2023-01-22T13:39:33.012Z,17.60
2023-01-22T13:41:39.188Z,17.05
2023-01-22T13:43:47.430Z,20.33
2023-01-22T13:45:51.813Z,18.88
2023-01-22T13:48:02.495Z,17.95
2023-01-22T13:50:06.631Z,16.27
2023-01-22T13:52:18.268Z,16.23
2023-01-22T13:54:33.386Z,15.90
2023-01-22T13:56:36.201Z,18.95
2023-01-22T13:58:49.048Z,17.63
2023-01-22T14:00:54.300Z,18.88
2023-01-22T14:02:57.200Z,16.90
2023-01-22T14:05:02.044Z,15.98
2023-01-22T14:07:08.405Z,16.33
2023-01-22T14:09:10.762Z,16.67
2023-01-22T14:11:14.730Z,17.15
2023-01-22T14:13:18.652Z,15.85
2023-01-22T14:15:22.072Z,18.00
2023-01-22T14:17:36.075Z,17.00
2023-01-22T14:19:43.850Z,17.20
2023-01-22T14:21:56.537Z,19.15
2023-01-22T14:23:59.201Z,17.27
2023-01-22T14:26:08.033Z,19.88
2023-01-22T14:28:11.983Z,17.60
2023-01-22T14:30:17.735Z,18.58
2023-01-22T14:32:20.113Z,19.90
2023-01-22T14:34:22.739Z,22.48
2023-01-22T14:36:27.941Z,18.90
2023-01-22T14:38:30.434Z,17.60
2023-01-22T14:40:34.777Z,17.60
2023-01-22T14:42:36.960Z,17.83
2023-01-22T14:44:40.537Z,18.60
2023-01-22T14:46:46.795Z,18.85
2023-01-22T14:48:55.968Z,16.95
2023-01-22T14:51:03.222Z,18.40
2023-01-22T14:53:08.365Z,17.55
2023-01-22T14:55:20.939Z,17.77
2023-01-22T14:57:32.339Z,19.65
2023-01-22T14:59:36.815Z,20.35
2023-01-22T15:01:40.124Z,20.17
2023-01-22T15:03:43.613Z,21.33
2023-01-22T15:05:51.698Z,16.90
2023-01-22T15:07:56.611Z,17.50
2023-01-22T15:09:59.448Z,18.58
2023-01-22T15:12:07.916Z,18.35
2023-01-22T15:14:23.469Z,16.50
2023-01-22T15:16:27.124Z,17.75
2023-01-22T15:18:29.999Z,17.50
2023-01-22T15:20:42.346Z,16.83
2023-01-22T15:22:46.053Z,17.77
2023-01-22T15:24:48.758Z,17.42
2023-01-22T15:26:51.812Z,16.88
2023-01-22T15:28:55.709Z,17.83
2023-01-22T15:31:08.169Z,18.30
2023-01-22T15:33:12.583Z,20.10
2023-01-22T15:35:15.744Z,21.95
2023-01-22T15:37:19.893Z,21.60
2023-01-22T15:39:22.148Z,22.75
2023-01-22T15:41:29.659Z,19.17
2023-01-22T15:43:33.435Z,18.70
2023-01-22T15:45:35.873Z,22.63
2023-01-22T15:47:38.414Z,18.45
2023-01-22T15:49:43.238Z,20.63
2023-01-22T15:51:46.450Z,20.67
2023-01-22T15:53:57.190Z,17.45
2023-01-22T15:56:02.710Z,18.63
2023-01-22T15:58:07.304Z,18.10
2023-01-22T16:00:12.741Z,18.00
2023-01-22T16:02:16.408Z,19.88
2023-01-22T16:04:20.278Z,17.27
2023-01-22T16:06:26.482Z,17.63
2023-01-22T16:08:30.707Z,16.52
2023-01-22T16:10:33.290Z,18.98
2023-01-22T16:12:37.015Z,18.83
2023-01-22T16:14:40.891Z,17.10
2023-01-22T16:16:45.017Z,17.13
2023-01-22T16:18:54.210Z,20.30
2023-01-22T16:21:05.015Z,16.27
2023-01-22T16:23:09.682Z,17.48
2023-01-22T16:25:13.080Z,17.20
2023-01-22T16:27:15.924Z,17.00
2023-01-22T16:29:18.608Z,16.35
2023-01-22T16:31:26.258Z,19.08
2023-01-22T16:33:31.640Z,19.33
2023-01-22T16:35:35.456Z,19.10
2023-01-22T16:37:39.402Z,19.52
2023-01-22T16:39:42.350Z,18.48
2023-01-22T16:41:50.756Z,20.17
2023-01-22T16:43:57.005Z,20.67
2023-01-22T16:46:00.667Z,19.52
2023-01-22T16:48:04.649Z,22.35
2023-01-22T16:50:12.624Z,18.60
2023-01-22T16:52:22.283Z,19.45
2023-01-22T16:54:29.347Z,19.55
2023-01-22T16:56:43.318Z,28.33
2023-01-22T16:58:45.955Z,21.85
2023-01-22T17:00:50.362Z,20.48
2023-01-22T17:03:01.468Z,18.27
2023-01-22T17:05:09.384Z,22.48
2023-01-22T17:07:27.294Z,19.70
2023-01-22T17:09:37.785Z,21.13
2023-01-22T17:11:44.227Z,22.95
2023-01-22T17:13:48.036Z,16.90
2023-01-22T17:15:53.274Z,18.00
2023-01-22T17:17:56.356Z,17.88
2023-01-22T17:20:02.050Z,17.70
2023-01-22T17:22:05.316Z,18.25
2023-01-22T17:24:08.397Z,14.82
2023-01-22T17:26:15.706Z,17.67
2023-01-22T17:28:19.843Z,20.40
2023-01-22T17:30:22.915Z,20.40
2023-01-22T17:32:27.284Z,19.63
2023-01-22T17:34:30.003Z,17.45
2023-01-22T17:36:33.107Z,16.73
2023-01-22T17:38:38.593Z,32.67
2023-01-22T17:40:42.847Z,27.10
2023-01-22T17:42:46.680Z,23.48
2023-01-22T17:44:49.673Z,22.05
2023-01-22T17:46:55.523Z,21.20
2023-01-22T17:49:00.069Z,20.73
2023-01-22T17:51:05.437Z,21.98
2023-01-22T17:53:08.541Z,23.33
2023-01-22T17:55:17.286Z,22.08
2023-01-22T17:57:21.578Z,21.88
2023-01-22T17:59:26.061Z,17.70
2023-01-22T18:01:31.463Z,18.67
2023-01-22T18:03:35.184Z,18.20
2023-01-22T18:05:40.063Z,16.15
2023-01-22T18:07:45.302Z,18.92
2023-01-22T18:09:48.804Z,17.02
2023-01-22T18:11:51.688Z,18.20
2023-01-22T18:14:01.583Z,16.35
2023-01-22T18:16:04.648Z,15.73
2023-01-22T18:18:07.712Z,22.00
2023-01-22T18:20:11.692Z,39.83
2023-01-22T18:22:16.004Z,70.80
2023-01-22T18:24:23.901Z,41.10
2023-01-22T18:26:27.363Z,19.48
2023-01-22T18:28:30.239Z,52.25
2023-01-22T18:30:36.037Z,32.67
2023-01-22T18:32:40.477Z,19.20
2023-01-22T18:34:44.090Z,27.73
2023-01-22T18:36:47.350Z,21.88
2023-01-22T18:38:50.819Z,17.92
2023-01-22T18:40:54.939Z,19.40
2023-01-22T18:42:58.918Z,18.15
2023-01-22T18:45:02.983Z,17.00
2023-01-22T18:47:13.504Z,22.48
2023-01-22T18:49:19.418Z,17.00
2023-01-22T18:51:24.254Z,17.25
2023-01-22T18:53:36.255Z,18.45
2023-01-22T18:55:40.138Z,19.15
2023-01-22T18:57:45.509Z,18.88
2023-01-22T18:59:51.634Z,18.00
2023-01-22T19:01:54.741Z,18.67
2023-01-22T19:04:00.436Z,19.33
2023-01-22T19:06:14.601Z,19.50
2023-01-22T19:08:22.211Z,17.60
2023-01-22T19:10:28.816Z,19.02
2023-01-22T19:12:31.845Z,17.20
2023-01-22T19:14:35.929Z,15.80
2023-01-22T19:16:39.230Z,17.20
2023-01-22T19:18:44.675Z,19.67
2023-01-22T19:20:47.463Z,16.80
2023-01-22T19:22:50.699Z,18.15
2023-01-22T19:24:53.582Z,21.80
2023-01-22T19:26:59.371Z,16.58
2023-01-22T19:29:05.793Z,15.52
2023-01-22T19:31:23.473Z,15.02
2023-01-22T19:33:30.881Z,14.80
2023-01-22T19:35:33.647Z,15.07
2023-01-22T19:37:36.569Z,15.48
2023-01-22T19:39:41.653Z,17.40
2023-01-22T19:41:44.734Z,15.35
2023-01-22T19:43:48.622Z,16.60
2023-01-22T19:45:53.064Z,16.13
2023-01-22T19:48:07.696Z,16.27
2023-01-22T19:50:11.228Z,15.60
2023-01-22T19:52:15.816Z,19.10
2023-01-22T19:54:19.456Z,15.15
2023-01-22T19:56:33.623Z,18.15
2023-01-22T19:58:36.851Z,16.00
2023-01-22T20:00:41.041Z,17.25
2023-01-22T20:02:51.261Z,17.30
2023-01-22T20:04:54.733Z,18.80
2023-01-22T20:07:04.285Z,18.05
2023-01-22T20:09:09.568Z,18.52
2023-01-22T20:11:24.619Z,14.10
2023-01-22T20:13:39.293Z,15.95
2023-01-22T20:15:43.273Z,14.95
2023-01-22T20:17:46.455Z,14.27
2023-01-22T20:19:50.952Z,17.02
2023-01-22T20:21:55.253Z,16.23
2023-01-22T20:23:59.375Z,14.32
2023-01-22T20:26:05.712Z,16.27
2023-01-22T20:28:16.579Z,14.88
2023-01-22T20:30:22.015Z,13.77
2023-01-22T20:32:32.205Z,14.82
2023-01-22T20:34:55.750Z,14.07
2023-01-22T20:36:58.836Z,13.90
2023-01-22T20:39:02.866Z,15.18
2023-01-22T20:41:10.074Z,15.68
2023-01-22T20:43:14.840Z,17.85
2023-01-22T20:45:19.043Z,15.75
2023-01-22T20:47:24.781Z,13.38
2023-01-22T20:49:28.486Z,16.35
2023-01-22T20:51:51.320Z,13.85
2023-01-22T20:53:56.934Z,19.10
2023-01-22T20:56:04.444Z,15.02
2023-01-22T20:58:06.901Z,14.90
2023-01-22T21:00:21.753Z,18.00
2023-01-22T21:02:29.939Z,15.73
2023-01-22T21:04:33.510Z,18.08
2023-01-22T21:06:41.625Z,16.88
2023-01-22T21:08:49.576Z,14.77
2023-01-22T21:11:04.118Z,15.25
2023-01-22T21:13:09.442Z,17.60
2023-01-22T21:15:34.296Z,12.77
2023-01-22T21:17:42.590Z,13.52
2023-01-22T21:19:51.986Z,13.73
2023-01-22T21:22:03.023Z,12.65
2023-01-22T21:24:09.450Z,15.20
2023-01-22T21:26:16.087Z,15.32
2023-01-22T21:28:20.121Z,15.32
2023-01-22T21:30:25.075Z,18.70
2023-01-22T21:32:50.649Z,20.15
2023-01-22T21:34:55.000Z,14.32
2023-01-22T21:37:07.716Z,12.43
2023-01-22T21:39:52.383Z,13.68
2023-01-22T21:42:35.729Z,12.68
2023-01-22T21:45:04.230Z,18.13
2023-01-22T21:47:09.388Z,13.27
2023-01-22T21:49:18.862Z,13.07
2023-01-22T21:51:30.395Z,14.07
2023-01-22T21:53:32.546Z,14.52
2023-01-22T21:55:38.621Z,12.98
2023-01-22T21:57:40.799Z,13.38
2023-01-22T21:59:45.554Z,17.33
2023-01-22T22:01:52.183Z,12.55
2023-01-22T22:03:54.153Z,12.88
2023-01-22T22:06:03.738Z,13.80
2023-01-22T22:08:13.716Z,13.35
2023-01-22T22:10:17.197Z,11.70
2023-01-22T22:12:19.232Z,12.00
2023-01-22T22:14:22.645Z,12.82
2023-01-22T22:16:25.654Z,11.70
2023-01-22T22:18:28.284Z,16.83
2023-01-22T22:20:37.963Z,13.55
2023-01-22T22:22:55.499Z,14.55
2023-01-22T22:25:03.571Z,14.52
2023-01-22T22:27:09.503Z,16.42
2023-01-22T22:29:14.997Z,13.32
2023-01-22T22:31:19.357Z,15.60
2023-01-22T22:33:25.128Z,11.68
2023-01-22T22:35:27.011Z,18.85
2023-01-22T22:37:32.042Z,14.60
2023-01-22T22:39:39.431Z,13.73
2023-01-22T22:41:45.339Z,13.95
2023-01-22T22:43:56.736Z,13.80
2023-01-22T22:46:13.342Z,15.00
2023-01-22T22:50:35.277Z,14.40
2023-01-22T22:52:37.618Z,15.32
2023-01-22T22:54:42.763Z,15.70
2023-01-22T22:56:49.464Z,17.42
2023-01-22T22:58:57.529Z,18.13
2023-01-22T23:01:10.586Z,15.32
2023-01-22T23:04:02.910Z,18.48
2023-01-22T23:08:28.277Z,13.40
2023-01-22T23:10:42.402Z,16.35
2023-01-22T23:12:44.269Z,14.98
2023-01-22T23:14:47.180Z,15.15
2023-01-22T23:16:50.190Z,15.15
2023-01-22T23:18:53.229Z,16.08
2023-01-22T23:20:57.258Z,17.40
2023-01-22T23:23:09.128Z,14.35
2023-01-22T23:27:21.086Z,15.60
2023-01-22T23:29:26.853Z,15.10
2023-01-22T23:31:33.132Z,12.77
2023-01-22T23:33:47.209Z,19.75
2023-01-22T23:35:55.152Z,18.27
2023-01-22T23:38:01.433Z,17.20
2023-01-22T23:40:09.007Z,15.10
2023-01-22T23:42:18.683Z,17.30
2023-01-22T23:44:27.816Z,18.08
2023-01-22T23:46:31.073Z,17.50
2023-01-22T23:48:41.087Z,16.58
2023-01-22T23:50:54.156Z,18.13
2023-01-22T23:52:56.250Z,14.55
2023-01-22T23:55:04.287Z,15.40
2023-01-22T23:57:12.225Z,18.90
2023-01-22T23:59:14.202Z,15.25
